sensor_id;sensor_type;location;lat;lon;timestamp;P1;durP1;ratioP1;P2;durP2;ratioP2
22881;SDS011;11608;50.894;5.296;2022-12-07T00:01:24;37.03;;;33.53;;
22881;SDS011;11608;50.894;5.296;2022-12-07T00:03:51;38.33;;;34.75;;
22881;SDS011;11608;50.894;5.296;2022-12-07T00:06:18;38.40;;;34.70;;
22881;SDS011;11608;50.894;5.296;2022-12-07T00:08:45;38.28;;;35.03;;
22881;SDS011;11608;50.894;5.296;2022-12-07T00:11:12;37.60;;;34.45;;
22881;SDS011;11608;50.894;5.296;2022-12-07T00:13:38;38.40;;;34.80;;
22881;SDS011;11608;50.894;5.296;2022-12-07T00:16:09;38.28;;;34.95;;
22881;SDS011;11608;50.894;5.296;2022-12-07T00:18:36;41.00;;;37.33;;
22881;SDS011;11608;50.894;5.296;2022-12-07T00:21:02;40.50;;;37.00;;
22881;SDS011;11608;50.894;5.296;2022-12-07T00:23:29;40.55;;;36.90;;
22881;SDS011;11608;50.894;5.296;2022-12-07T00:25:55;42.30;;;38.63;;
22881;SDS011;11608;50.894;5.296;2022-12-07T00:28:21;42.65;;;38.95;;
22881;SDS011;11608;50.894;5.296;2022-12-07T00:30:47;43.30;;;39.22;;
22881;SDS011;11608;50.894;5.296;2022-12-07T00:33:13;46.77;;;42.67;;
22881;SDS011;11608;50.894;5.296;2022-12-07T00:35:39;43.97;;;40.37;;
22881;SDS011;11608;50.894;5.296;2022-12-07T00:38:05;41.97;;;38.57;;
22881;SDS011;11608;50.894;5.296;2022-12-07T00:40:32;42.63;;;38.80;;
22881;SDS011;11608;50.894;5.296;2022-12-07T00:42:58;39.65;;;36.35;;
22881;SDS011;11608;50.894;5.296;2022-12-07T00:45:24;40.22;;;36.95;;
22881;SDS011;11608;50.894;5.296;2022-12-07T00:47:50;39.88;;;36.58;;
22881;SDS011;11608;50.894;5.296;2022-12-07T00:50:16;43.35;;;39.83;;
22881;SDS011;11608;50.894;5.296;2022-12-07T00:52:42;42.07;;;38.37;;
22881;SDS011;11608;50.894;5.296;2022-12-07T00:55:08;44.72;;;40.55;;
22881;SDS011;11608;50.894;5.296;2022-12-07T00:57:34;45.67;;;41.80;;
22881;SDS011;11608;50.894;5.296;2022-12-07T01:00:00;39.55;;;36.45;;
22881;SDS011;11608;50.894;5.296;2022-12-07T01:02:26;43.55;;;39.85;;
22881;SDS011;11608;50.894;5.296;2022-12-07T01:04:52;39.13;;;36.00;;
22881;SDS011;11608;50.894;5.296;2022-12-07T01:07:18;41.22;;;38.05;;
22881;SDS011;11608;50.894;5.296;2022-12-07T01:09:44;41.40;;;38.03;;
22881;SDS011;11608;50.894;5.296;2022-12-07T01:12:10;40.57;;;37.07;;
22881;SDS011;11608;50.894;5.296;2022-12-07T01:14:36;39.60;;;36.47;;
22881;SDS011;11608;50.894;5.296;2022-12-07T01:17:02;39.90;;;36.60;;
22881;SDS011;11608;50.894;5.296;2022-12-07T01:19:28;39.03;;;35.95;;
22881;SDS011;11608;50.894;5.296;2022-12-07T01:21:55;39.60;;;36.50;;
22881;SDS011;11608;50.894;5.296;2022-12-07T01:24:20;40.75;;;37.38;;
22881;SDS011;11608;50.894;5.296;2022-12-07T01:26:48;41.08;;;37.75;;
22881;SDS011;11608;50.894;5.296;2022-12-07T01:29:14;40.88;;;37.53;;
22881;SDS011;11608;50.894;5.296;2022-12-07T01:31:43;43.55;;;39.80;;
22881;SDS011;11608;50.894;5.296;2022-12-07T01:34:09;44.90;;;40.95;;
22881;SDS011;11608;50.894;5.296;2022-12-07T01:36:36;43.97;;;40.47;;
22881;SDS011;11608;50.894;5.296;2022-12-07T01:39:03;42.87;;;39.23;;
22881;SDS011;11608;50.894;5.296;2022-12-07T01:41:30;43.70;;;40.30;;
22881;SDS011;11608;50.894;5.296;2022-12-07T01:49:21;42.03;;;38.50;;
22881;SDS011;11608;50.894;5.296;2022-12-07T01:51:49;40.03;;;36.75;;
22881;SDS011;11608;50.894;5.296;2022-12-07T01:54:16;42.20;;;38.80;;
22881;SDS011;11608;50.894;5.296;2022-12-07T01:56:45;40.27;;;36.97;;
22881;SDS011;11608;50.894;5.296;2022-12-07T01:59:12;43.45;;;39.75;;
22881;SDS011;11608;50.894;5.296;2022-12-07T02:01:39;39.83;;;36.67;;
22881;SDS011;11608;50.894;5.296;2022-12-07T02:04:05;42.07;;;38.80;;
22881;SDS011;11608;50.894;5.296;2022-12-07T02:06:31;41.92;;;38.72;;
22881;SDS011;11608;50.894;5.296;2022-12-07T02:08:57;40.60;;;37.30;;
22881;SDS011;11608;50.894;5.296;2022-12-07T02:11:23;39.08;;;35.97;;
22881;SDS011;11608;50.894;5.296;2022-12-07T02:13:49;41.58;;;38.13;;
22881;SDS011;11608;50.894;5.296;2022-12-07T02:16:35;41.47;;;38.17;;
22881;SDS011;11608;50.894;5.296;2022-12-07T02:19:10;42.58;;;39.28;;
22881;SDS011;11608;50.894;5.296;2022-12-07T02:24:21;38.65;;;35.33;;
22881;SDS011;11608;50.894;5.296;2022-12-07T02:29:30;43.90;;;40.38;;
22881;SDS011;11608;50.894;5.296;2022-12-07T02:35:30;42.58;;;39.17;;
22881;SDS011;11608;50.894;5.296;2022-12-07T02:40:27;43.90;;;40.47;;
22881;SDS011;11608;50.894;5.296;2022-12-07T02:42:55;44.20;;;40.58;;
22881;SDS011;11608;50.894;5.296;2022-12-07T02:45:23;44.20;;;40.75;;
22881;SDS011;11608;50.894;5.296;2022-12-07T02:47:51;44.30;;;40.45;;
22881;SDS011;11608;50.894;5.296;2022-12-07T02:50:19;46.45;;;42.42;;
22881;SDS011;11608;50.894;5.296;2022-12-07T02:52:46;43.80;;;40.27;;
22881;SDS011;11608;50.894;5.296;2022-12-07T02:55:12;44.13;;;40.17;;
22881;SDS011;11608;50.894;5.296;2022-12-07T02:57:48;40.63;;;37.42;;
22881;SDS011;11608;50.894;5.296;2022-12-07T03:00:19;41.53;;;38.22;;
22881;SDS011;11608;50.894;5.296;2022-12-07T03:05:25;41.05;;;37.85;;
22881;SDS011;11608;50.894;5.296;2022-12-07T03:15:49;41.08;;;37.92;;
22881;SDS011;11608;50.894;5.296;2022-12-07T03:18:18;44.08;;;40.75;;
22881;SDS011;11608;50.894;5.296;2022-12-07T03:20:45;42.60;;;39.30;;
22881;SDS011;11608;50.894;5.296;2022-12-07T03:23:13;43.30;;;39.80;;
22881;SDS011;11608;50.894;5.296;2022-12-07T03:25:41;43.30;;;39.80;;
22881;SDS011;11608;50.894;5.296;2022-12-07T03:28:08;42.07;;;38.87;;
22881;SDS011;11608;50.894;5.296;2022-12-07T03:33:07;46.70;;;42.95;;
22881;SDS011;11608;50.894;5.296;2022-12-07T03:35:40;43.17;;;39.77;;
22881;SDS011;11608;50.894;5.296;2022-12-07T03:38:15;44.10;;;40.70;;
22881;SDS011;11608;50.894;5.296;2022-12-07T03:40:44;43.80;;;40.30;;
22881;SDS011;11608;50.894;5.296;2022-12-07T03:43:16;42.50;;;39.07;;
22881;SDS011;11608;50.894;5.296;2022-12-07T03:45:44;45.83;;;41.83;;
22881;SDS011;11608;50.894;5.296;2022-12-07T03:51:20;43.95;;;40.25;;
22881;SDS011;11608;50.894;5.296;2022-12-07T03:53:51;45.97;;;42.00;;
22881;SDS011;11608;50.894;5.296;2022-12-07T03:56:18;45.63;;;41.83;;
22881;SDS011;11608;50.894;5.296;2022-12-07T03:58:45;43.77;;;40.27;;
22881;SDS011;11608;50.894;5.296;2022-12-07T04:01:11;43.00;;;39.63;;
22881;SDS011;11608;50.894;5.296;2022-12-07T04:03:37;43.43;;;39.63;;
22881;SDS011;11608;50.894;5.296;2022-12-07T04:06:03;42.63;;;38.90;;
22881;SDS011;11608;50.894;5.296;2022-12-07T04:08:29;43.45;;;39.55;;
22881;SDS011;11608;50.894;5.296;2022-12-07T04:10:55;43.25;;;39.65;;
22881;SDS011;11608;50.894;5.296;2022-12-07T04:13:21;44.03;;;40.27;;
22881;SDS011;11608;50.894;5.296;2022-12-07T04:15:47;42.05;;;38.40;;
22881;SDS011;11608;50.894;5.296;2022-12-07T04:18:13;41.53;;;37.93;;
22881;SDS011;11608;50.894;5.296;2022-12-07T04:20:39;42.40;;;38.80;;
22881;SDS011;11608;50.894;5.296;2022-12-07T04:23:06;44.93;;;40.83;;
22881;SDS011;11608;50.894;5.296;2022-12-07T04:25:32;43.07;;;39.37;;
22881;SDS011;11608;50.894;5.296;2022-12-07T04:28:01;43.50;;;40.00;;
22881;SDS011;11608;50.894;5.296;2022-12-07T04:30:27;43.23;;;39.40;;
22881;SDS011;11608;50.894;5.296;2022-12-07T04:32:53;44.38;;;40.55;;
22881;SDS011;11608;50.894;5.296;2022-12-07T04:35:19;43.50;;;39.50;;
22881;SDS011;11608;50.894;5.296;2022-12-07T04:37:45;43.33;;;39.50;;
22881;SDS011;11608;50.894;5.296;2022-12-07T04:40:11;41.40;;;37.83;;
22881;SDS011;11608;50.894;5.296;2022-12-07T04:42:39;47.30;;;43.03;;
22881;SDS011;11608;50.894;5.296;2022-12-07T04:45:05;45.37;;;41.37;;
22881;SDS011;11608;50.894;5.296;2022-12-07T04:47:31;47.07;;;42.10;;
22881;SDS011;11608;50.894;5.296;2022-12-07T04:49:57;46.03;;;41.83;;
22881;SDS011;11608;50.894;5.296;2022-12-07T04:52:23;46.03;;;41.97;;
22881;SDS011;11608;50.894;5.296;2022-12-07T04:54:49;44.60;;;40.90;;
22881;SDS011;11608;50.894;5.296;2022-12-07T04:57:15;44.20;;;40.30;;
22881;SDS011;11608;50.894;5.296;2022-12-07T04:59:41;44.93;;;40.93;;
22881;SDS011;11608;50.894;5.296;2022-12-07T05:02:07;44.20;;;40.40;;
22881;SDS011;11608;50.894;5.296;2022-12-07T05:04:33;44.43;;;40.60;;
22881;SDS011;11608;50.894;5.296;2022-12-07T05:06:59;46.63;;;42.47;;
22881;SDS011;11608;50.894;5.296;2022-12-07T05:09:25;48.93;;;44.50;;
22881;SDS011;11608;50.894;5.296;2022-12-07T05:11:51;47.23;;;42.87;;
22881;SDS011;11608;50.894;5.296;2022-12-07T05:14:19;46.33;;;42.47;;
22881;SDS011;11608;50.894;5.296;2022-12-07T05:16:46;46.67;;;42.67;;
22881;SDS011;11608;50.894;5.296;2022-12-07T05:19:12;44.63;;;41.03;;
22881;SDS011;11608;50.894;5.296;2022-12-07T05:21:38;42.87;;;39.00;;
22881;SDS011;11608;50.894;5.296;2022-12-07T05:24:05;43.63;;;39.83;;
22881;SDS011;11608;50.894;5.296;2022-12-07T05:26:32;42.43;;;38.73;;
22881;SDS011;11608;50.894;5.296;2022-12-07T05:28:58;44.77;;;41.07;;
22881;SDS011;11608;50.894;5.296;2022-12-07T05:31:25;44.60;;;41.00;;
22881;SDS011;11608;50.894;5.296;2022-12-07T05:33:51;42.87;;;39.20;;
22881;SDS011;11608;50.894;5.296;2022-12-07T05:36:18;41.57;;;38.00;;
22881;SDS011;11608;50.894;5.296;2022-12-07T05:38:44;42.70;;;38.93;;
22881;SDS011;11608;50.894;5.296;2022-12-07T05:41:12;42.70;;;39.13;;
22881;SDS011;11608;50.894;5.296;2022-12-07T05:43:58;44.83;;;40.77;;
22881;SDS011;11608;50.894;5.296;2022-12-07T05:46:24;47.33;;;42.90;;
22881;SDS011;11608;50.894;5.296;2022-12-07T05:48:51;46.17;;;42.10;;
22881;SDS011;11608;50.894;5.296;2022-12-07T05:51:17;46.10;;;42.10;;
22881;SDS011;11608;50.894;5.296;2022-12-07T05:53:43;45.07;;;40.97;;
22881;SDS011;11608;50.894;5.296;2022-12-07T05:56:09;48.57;;;44.17;;
22881;SDS011;11608;50.894;5.296;2022-12-07T05:58:35;47.47;;;43.10;;
22881;SDS011;11608;50.894;5.296;2022-12-07T06:01:20;49.17;;;44.80;;
22881;SDS011;11608;50.894;5.296;2022-12-07T06:03:46;47.20;;;43.00;;
22881;SDS011;11608;50.894;5.296;2022-12-07T06:06:12;48.10;;;43.73;;
22881;SDS011;11608;50.894;5.296;2022-12-07T06:08:38;47.17;;;42.83;;
22881;SDS011;11608;50.894;5.296;2022-12-07T06:11:04;48.20;;;43.77;;
22881;SDS011;11608;50.894;5.296;2022-12-07T06:13:49;49.10;;;44.27;;
22881;SDS011;11608;50.894;5.296;2022-12-07T06:16:15;48.70;;;44.07;;
22881;SDS011;11608;50.894;5.296;2022-12-07T06:18:41;46.00;;;41.83;;
22881;SDS011;11608;50.894;5.296;2022-12-07T06:21:07;40.47;;;37.07;;
22881;SDS011;11608;50.894;5.296;2022-12-07T06:23:33;45.27;;;41.47;;
22881;SDS011;11608;50.894;5.296;2022-12-07T06:25:59;45.17;;;41.23;;
22881;SDS011;11608;50.894;5.296;2022-12-07T06:28:25;45.23;;;41.40;;
22881;SDS011;11608;50.894;5.296;2022-12-07T06:31:01;47.23;;;43.03;;
22881;SDS011;11608;50.894;5.296;2022-12-07T06:33:27;46.23;;;42.30;;
22881;SDS011;11608;50.894;5.296;2022-12-07T06:35:53;47.77;;;43.77;;
22881;SDS011;11608;50.894;5.296;2022-12-07T06:38:20;44.80;;;40.63;;
22881;SDS011;11608;50.894;5.296;2022-12-07T06:40:46;47.87;;;43.63;;
22881;SDS011;11608;50.894;5.296;2022-12-07T06:43:13;47.37;;;43.03;;
22881;SDS011;11608;50.894;5.296;2022-12-07T06:45:40;48.07;;;43.97;;
22881;SDS011;11608;50.894;5.296;2022-12-07T06:48:06;49.53;;;45.20;;
22881;SDS011;11608;50.894;5.296;2022-12-07T06:50:32;48.03;;;43.63;;
22881;SDS011;11608;50.894;5.296;2022-12-07T06:52:58;46.63;;;42.33;;
22881;SDS011;11608;50.894;5.296;2022-12-07T06:55:24;47.50;;;43.03;;
22881;SDS011;11608;50.894;5.296;2022-12-07T06:57:50;48.80;;;44.57;;
22881;SDS011;11608;50.894;5.296;2022-12-07T07:00:16;47.13;;;43.00;;
22881;SDS011;11608;50.894;5.296;2022-12-07T07:02:42;47.40;;;43.07;;
22881;SDS011;11608;50.894;5.296;2022-12-07T07:05:08;46.70;;;42.40;;
22881;SDS011;11608;50.894;5.296;2022-12-07T07:07:34;44.30;;;40.37;;
22881;SDS011;11608;50.894;5.296;2022-12-07T07:10:00;45.13;;;41.13;;
22881;SDS011;11608;50.894;5.296;2022-12-07T07:12:26;45.23;;;41.23;;
22881;SDS011;11608;50.894;5.296;2022-12-07T07:14:52;44.03;;;40.17;;
22881;SDS011;11608;50.894;5.296;2022-12-07T07:17:18;43.47;;;39.90;;
22881;SDS011;11608;50.894;5.296;2022-12-07T07:19:44;45.10;;;41.03;;
22881;SDS011;11608;50.894;5.296;2022-12-07T07:22:10;44.47;;;40.67;;
22881;SDS011;11608;50.894;5.296;2022-12-07T07:24:36;45.53;;;41.77;;
22881;SDS011;11608;50.894;5.296;2022-12-07T07:27:02;44.47;;;40.53;;
22881;SDS011;11608;50.894;5.296;2022-12-07T07:29:29;43.97;;;40.33;;
22881;SDS011;11608;50.894;5.296;2022-12-07T07:31:55;42.93;;;39.13;;
22881;SDS011;11608;50.894;5.296;2022-12-07T07:34:21;41.70;;;38.00;;
22881;SDS011;11608;50.894;5.296;2022-12-07T07:36:47;40.93;;;37.63;;
22881;SDS011;11608;50.894;5.296;2022-12-07T07:39:13;39.87;;;36.47;;
22881;SDS011;11608;50.894;5.296;2022-12-07T07:41:39;40.40;;;36.67;;
22881;SDS011;11608;50.894;5.296;2022-12-07T07:44:05;39.30;;;35.90;;
22881;SDS011;11608;50.894;5.296;2022-12-07T07:46:31;39.33;;;35.93;;
22881;SDS011;11608;50.894;5.296;2022-12-07T07:48:58;38.70;;;35.13;;
22881;SDS011;11608;50.894;5.296;2022-12-07T07:51:24;40.87;;;36.97;;
22881;SDS011;11608;50.894;5.296;2022-12-07T07:53:50;39.50;;;36.10;;
22881;SDS011;11608;50.894;5.296;2022-12-07T07:56:16;39.70;;;36.27;;
22881;SDS011;11608;50.894;5.296;2022-12-07T07:58:42;39.77;;;36.17;;
22881;SDS011;11608;50.894;5.296;2022-12-07T08:01:08;38.70;;;35.30;;
22881;SDS011;11608;50.894;5.296;2022-12-07T08:03:34;40.93;;;37.53;;
22881;SDS011;11608;50.894;5.296;2022-12-07T08:06:02;42.40;;;38.73;;
22881;SDS011;11608;50.894;5.296;2022-12-07T08:08:28;42.20;;;38.70;;
22881;SDS011;11608;50.894;5.296;2022-12-07T08:10:54;42.40;;;38.80;;
22881;SDS011;11608;50.894;5.296;2022-12-07T08:13:20;42.03;;;38.23;;
22881;SDS011;11608;50.894;5.296;2022-12-07T08:15:47;43.57;;;39.97;;
22881;SDS011;11608;50.894;5.296;2022-12-07T08:18:13;45.23;;;41.10;;
22881;SDS011;11608;50.894;5.296;2022-12-07T08:20:40;43.17;;;38.97;;
22881;SDS011;11608;50.894;5.296;2022-12-07T08:23:07;44.00;;;40.03;;
22881;SDS011;11608;50.894;5.296;2022-12-07T08:25:33;42.17;;;38.17;;
22881;SDS011;11608;50.894;5.296;2022-12-07T08:28:00;41.37;;;37.63;;
22881;SDS011;11608;50.894;5.296;2022-12-07T08:30:26;40.87;;;37.07;;
22881;SDS011;11608;50.894;5.296;2022-12-07T08:32:53;39.73;;;35.73;;
22881;SDS011;11608;50.894;5.296;2022-12-07T08:35:19;38.57;;;35.27;;
22881;SDS011;11608;50.894;5.296;2022-12-07T08:37:45;38.53;;;34.87;;
22881;SDS011;11608;50.894;5.296;2022-12-07T08:40:11;37.80;;;34.40;;
22881;SDS011;11608;50.894;5.296;2022-12-07T08:42:44;37.78;;;34.33;;
22881;SDS011;11608;50.894;5.296;2022-12-07T08:45:11;36.83;;;33.55;;
22881;SDS011;11608;50.894;5.296;2022-12-07T08:47:38;36.22;;;32.90;;
22881;SDS011;11608;50.894;5.296;2022-12-07T08:50:05;35.38;;;31.95;;
22881;SDS011;11608;50.894;5.296;2022-12-07T08:52:33;35.85;;;31.58;;
22881;SDS011;11608;50.894;5.296;2022-12-07T08:55:00;35.72;;;32.17;;
22881;SDS011;11608;50.894;5.296;2022-12-07T08:57:28;31.95;;;29.20;;
22881;SDS011;11608;50.894;5.296;2022-12-07T08:59:54;32.50;;;29.73;;
22881;SDS011;11608;50.894;5.296;2022-12-07T09:02:20;32.75;;;29.98;;
22881;SDS011;11608;50.894;5.296;2022-12-07T09:04:46;33.45;;;30.48;;
22881;SDS011;11608;50.894;5.296;2022-12-07T09:07:12;34.03;;;30.92;;
22881;SDS011;11608;50.894;5.296;2022-12-07T09:09:38;35.33;;;32.08;;
22881;SDS011;11608;50.894;5.296;2022-12-07T09:12:04;35.20;;;31.77;;
22881;SDS011;11608;50.894;5.296;2022-12-07T09:14:30;35.63;;;32.17;;
22881;SDS011;11608;50.894;5.296;2022-12-07T09:17:04;34.75;;;31.45;;
22881;SDS011;11608;50.894;5.296;2022-12-07T09:19:30;33.25;;;30.45;;
22881;SDS011;11608;50.894;5.296;2022-12-07T09:21:56;31.55;;;29.05;;
22881;SDS011;11608;50.894;5.296;2022-12-07T09:24:22;32.80;;;29.92;;
22881;SDS011;11608;50.894;5.296;2022-12-07T09:26:48;31.00;;;28.42;;
22881;SDS011;11608;50.894;5.296;2022-12-07T09:29:14;29.30;;;26.85;;
22881;SDS011;11608;50.894;5.296;2022-12-07T09:31:41;31.77;;;28.92;;
22881;SDS011;11608;50.894;5.296;2022-12-07T09:34:07;33.00;;;30.27;;
22881;SDS011;11608;50.894;5.296;2022-12-07T09:36:33;29.77;;;27.17;;
22881;SDS011;11608;50.894;5.296;2022-12-07T09:38:59;30.33;;;27.80;;
22881;SDS011;11608;50.894;5.296;2022-12-07T09:41:26;30.13;;;27.83;;
22881;SDS011;11608;50.894;5.296;2022-12-07T09:43:53;29.52;;;27.23;;
22881;SDS011;11608;50.894;5.296;2022-12-07T09:46:23;29.75;;;27.45;;
22881;SDS011;11608;50.894;5.296;2022-12-07T09:48:49;30.90;;;28.50;;
22881;SDS011;11608;50.894;5.296;2022-12-07T09:51:17;30.33;;;27.83;;
22881;SDS011;11608;50.894;5.296;2022-12-07T09:53:45;30.00;;;27.85;;
22881;SDS011;11608;50.894;5.296;2022-12-07T09:56:12;31.40;;;28.90;;
22881;SDS011;11608;50.894;5.296;2022-12-07T09:58:39;31.05;;;28.83;;
22881;SDS011;11608;50.894;5.296;2022-12-07T10:01:09;31.58;;;28.92;;
22881;SDS011;11608;50.894;5.296;2022-12-07T10:03:37;30.00;;;27.58;;
22881;SDS011;11608;50.894;5.296;2022-12-07T10:06:04;30.80;;;28.17;;
22881;SDS011;11608;50.894;5.296;2022-12-07T10:08:33;29.90;;;27.48;;
22881;SDS011;11608;50.894;5.296;2022-12-07T10:11:00;31.67;;;29.25;;
22881;SDS011;11608;50.894;5.296;2022-12-07T10:13:35;31.25;;;28.70;;
22881;SDS011;11608;50.894;5.296;2022-12-07T10:16:02;31.35;;;28.95;;
22881;SDS011;11608;50.894;5.296;2022-12-07T10:21:01;31.48;;;28.63;;
22881;SDS011;11608;50.894;5.296;2022-12-07T10:23:28;28.60;;;26.30;;
22881;SDS011;11608;50.894;5.296;2022-12-07T10:25:54;27.92;;;25.75;;
22881;SDS011;11608;50.894;5.296;2022-12-07T10:28:20;29.75;;;27.35;;
22881;SDS011;11608;50.894;5.296;2022-12-07T10:30:47;29.13;;;27.00;;
22881;SDS011;11608;50.894;5.296;2022-12-07T10:35:59;31.52;;;29.13;;
22881;SDS011;11608;50.894;5.296;2022-12-07T10:38:26;30.85;;;28.40;;
22881;SDS011;11608;50.894;5.296;2022-12-07T10:41:07;30.38;;;27.73;;
22881;SDS011;11608;50.894;5.296;2022-12-07T10:43:34;30.13;;;27.52;;
22881;SDS011;11608;50.894;5.296;2022-12-07T10:51:07;28.20;;;25.90;;
22881;SDS011;11608;50.894;5.296;2022-12-07T10:59:11;28.23;;;25.88;;
22881;SDS011;11608;50.894;5.296;2022-12-07T11:01:45;28.60;;;26.13;;
22881;SDS011;11608;50.894;5.296;2022-12-07T11:04:21;28.90;;;26.55;;
22881;SDS011;11608;50.894;5.296;2022-12-07T11:09:59;30.92;;;28.52;;
22881;SDS011;11608;50.894;5.296;2022-12-07T11:12:09;31.70;;;29.02;;
22881;SDS011;11608;50.894;5.296;2022-12-07T11:14:43;31.15;;;28.55;;
22881;SDS011;11608;50.894;5.296;2022-12-07T11:22:35;32.03;;;29.45;;
22881;SDS011;11608;50.894;5.296;2022-12-07T11:25:13;32.33;;;29.73;;
22881;SDS011;11608;50.894;5.296;2022-12-07T11:30:12;32.00;;;29.15;;
22881;SDS011;11608;50.894;5.296;2022-12-07T11:37:51;31.33;;;28.60;;
22881;SDS011;11608;50.894;5.296;2022-12-07T11:40:33;31.10;;;28.42;;
22881;SDS011;11608;50.894;5.296;2022-12-07T11:43:24;30.65;;;28.17;;
22881;SDS011;11608;50.894;5.296;2022-12-07T11:45:59;31.55;;;28.75;;
22881;SDS011;11608;50.894;5.296;2022-12-07T11:48:31;31.13;;;28.40;;
22881;SDS011;11608;50.894;5.296;2022-12-07T11:50:59;29.95;;;27.45;;
22881;SDS011;11608;50.894;5.296;2022-12-07T11:53:35;31.48;;;28.83;;
22881;SDS011;11608;50.894;5.296;2022-12-07T11:56:11;31.42;;;28.95;;
22881;SDS011;11608;50.894;5.296;2022-12-07T12:03:47;32.05;;;29.27;;
22881;SDS011;11608;50.894;5.296;2022-12-07T12:06:13;30.02;;;27.48;;
22881;SDS011;11608;50.894;5.296;2022-12-07T12:08:41;30.40;;;27.80;;
22881;SDS011;11608;50.894;5.296;2022-12-07T12:19:27;30.13;;;27.73;;
22881;SDS011;11608;50.894;5.296;2022-12-07T12:21:58;30.50;;;28.08;;
22881;SDS011;11608;50.894;5.296;2022-12-07T12:24:26;29.58;;;27.02;;
22881;SDS011;11608;50.894;5.296;2022-12-07T12:27:19;30.45;;;27.85;;
22881;SDS011;11608;50.894;5.296;2022-12-07T12:29:41;29.30;;;26.90;;
22881;SDS011;11608;50.894;5.296;2022-12-07T12:32:22;29.20;;;26.88;;
22881;SDS011;11608;50.894;5.296;2022-12-07T12:37:38;29.75;;;26.90;;
22881;SDS011;11608;50.894;5.296;2022-12-07T12:42:45;27.42;;;25.25;;
22881;SDS011;11608;50.894;5.296;2022-12-07T12:50:21;27.27;;;25.17;;
22881;SDS011;11608;50.894;5.296;2022-12-07T12:52:51;27.88;;;25.52;;
22881;SDS011;11608;50.894;5.296;2022-12-07T12:55:19;26.65;;;24.60;;
22881;SDS011;11608;50.894;5.296;2022-12-07T12:57:46;26.25;;;24.20;;
22881;SDS011;11608;50.894;5.296;2022-12-07T13:00:22;27.23;;;25.33;;
22881;SDS011;11608;50.894;5.296;2022-12-07T13:02:56;27.73;;;25.25;;
22881;SDS011;11608;50.894;5.296;2022-12-07T13:05:30;27.85;;;25.75;;
22881;SDS011;11608;50.894;5.296;2022-12-07T13:08:00;27.13;;;25.15;;
22881;SDS011;11608;50.894;5.296;2022-12-07T13:13:00;28.33;;;26.00;;
22881;SDS011;11608;50.894;5.296;2022-12-07T13:26:17;29.08;;;27.08;;
22881;SDS011;11608;50.894;5.296;2022-12-07T13:28:51;27.27;;;25.13;;
22881;SDS011;11608;50.894;5.296;2022-12-07T13:33:56;27.00;;;25.05;;
22881;SDS011;11608;50.894;5.296;2022-12-07T13:36:30;28.13;;;26.13;;
22881;SDS011;11608;50.894;5.296;2022-12-07T13:39:09;26.80;;;24.83;;
22881;SDS011;11608;50.894;5.296;2022-12-07T13:41:36;25.33;;;23.42;;
22881;SDS011;11608;50.894;5.296;2022-12-07T13:44:05;27.00;;;24.85;;
22881;SDS011;11608;50.894;5.296;2022-12-07T13:49:23;26.60;;;24.70;;
22881;SDS011;11608;50.894;5.296;2022-12-07T13:51:49;25.25;;;23.40;;
22881;SDS011;11608;50.894;5.296;2022-12-07T13:54:16;25.48;;;23.75;;
22881;SDS011;11608;50.894;5.296;2022-12-07T13:56:42;25.83;;;23.88;;
22881;SDS011;11608;50.894;5.296;2022-12-07T13:59:16;26.55;;;24.38;;
22881;SDS011;11608;50.894;5.296;2022-12-07T14:01:44;26.08;;;23.77;;
22881;SDS011;11608;50.894;5.296;2022-12-07T14:06:53;29.13;;;26.48;;
22881;SDS011;11608;50.894;5.296;2022-12-07T14:09:21;28.48;;;26.17;;
22881;SDS011;11608;50.894;5.296;2022-12-07T14:11:48;28.38;;;26.08;;
22881;SDS011;11608;50.894;5.296;2022-12-07T14:14:19;27.88;;;25.48;;
22881;SDS011;11608;50.894;5.296;2022-12-07T14:17:00;27.98;;;25.88;;
22881;SDS011;11608;50.894;5.296;2022-12-07T14:25:43;27.58;;;25.48;;
22881;SDS011;11608;50.894;5.296;2022-12-07T14:27:38;28.73;;;26.50;;
22881;SDS011;11608;50.894;5.296;2022-12-07T14:30:04;28.58;;;26.40;;
22881;SDS011;11608;50.894;5.296;2022-12-07T14:32:31;27.02;;;24.92;;
22881;SDS011;11608;50.894;5.296;2022-12-07T14:37:29;27.08;;;24.95;;
22881;SDS011;11608;50.894;5.296;2022-12-07T14:39:56;27.67;;;25.63;;
22881;SDS011;11608;50.894;5.296;2022-12-07T14:42:23;27.42;;;25.42;;
22881;SDS011;11608;50.894;5.296;2022-12-07T14:44:50;25.92;;;24.05;;
22881;SDS011;11608;50.894;5.296;2022-12-07T14:47:19;27.45;;;25.55;;
22881;SDS011;11608;50.894;5.296;2022-12-07T14:49:45;26.10;;;24.30;;
22881;SDS011;11608;50.894;5.296;2022-12-07T14:52:32;27.13;;;25.00;;
22881;SDS011;11608;50.894;5.296;2022-12-07T14:55:00;26.23;;;24.33;;
22881;SDS011;11608;50.894;5.296;2022-12-07T14:57:26;27.40;;;25.20;;
22881;SDS011;11608;50.894;5.296;2022-12-07T14:59:52;26.58;;;24.17;;
22881;SDS011;11608;50.894;5.296;2022-12-07T15:02:18;25.77;;;23.98;;
22881;SDS011;11608;50.894;5.296;2022-12-07T15:04:44;26.05;;;23.83;;
22881;SDS011;11608;50.894;5.296;2022-12-07T15:07:29;26.88;;;24.75;;
22881;SDS011;11608;50.894;5.296;2022-12-07T15:09:55;27.08;;;25.08;;
22881;SDS011;11608;50.894;5.296;2022-12-07T15:12:21;28.25;;;25.92;;
22881;SDS011;11608;50.894;5.296;2022-12-07T15:14:48;28.33;;;26.10;;
22881;SDS011;11608;50.894;5.296;2022-12-07T15:17:16;28.65;;;26.65;;
22881;SDS011;11608;50.894;5.296;2022-12-07T15:19:42;29.50;;;27.20;;
22881;SDS011;11608;50.894;5.296;2022-12-07T15:22:08;29.95;;;27.60;;
22881;SDS011;11608;50.894;5.296;2022-12-07T15:24:37;32.05;;;29.50;;
22881;SDS011;11608;50.894;5.296;2022-12-07T15:27:03;29.00;;;27.00;;
22881;SDS011;11608;50.894;5.296;2022-12-07T15:29:29;29.98;;;27.83;;
22881;SDS011;11608;50.894;5.296;2022-12-07T15:31:55;28.88;;;26.85;;
22881;SDS011;11608;50.894;5.296;2022-12-07T15:34:22;30.38;;;28.17;;
22881;SDS011;11608;50.894;5.296;2022-12-07T15:36:49;30.75;;;28.63;;
22881;SDS011;11608;50.894;5.296;2022-12-07T15:39:15;30.60;;;28.50;;
22881;SDS011;11608;50.894;5.296;2022-12-07T15:41:41;30.30;;;28.30;;
22881;SDS011;11608;50.894;5.296;2022-12-07T15:44:09;30.85;;;28.65;;
22881;SDS011;11608;50.894;5.296;2022-12-07T15:46:54;32.35;;;30.13;;
22881;SDS011;11608;50.894;5.296;2022-12-07T15:49:20;30.67;;;28.58;;
22881;SDS011;11608;50.894;5.296;2022-12-07T15:51:46;31.20;;;28.92;;
22881;SDS011;11608;50.894;5.296;2022-12-07T15:54:18;30.75;;;28.40;;
22881;SDS011;11608;50.894;5.296;2022-12-07T15:56:44;28.13;;;26.33;;
22881;SDS011;11608;50.894;5.296;2022-12-07T15:59:10;30.20;;;28.13;;
22881;SDS011;11608;50.894;5.296;2022-12-07T16:01:36;28.45;;;26.33;;
22881;SDS011;11608;50.894;5.296;2022-12-07T16:04:03;27.08;;;25.38;;
22881;SDS011;11608;50.894;5.296;2022-12-07T16:06:29;27.45;;;25.48;;
22881;SDS011;11608;50.894;5.296;2022-12-07T16:08:55;26.42;;;24.48;;
22881;SDS011;11608;50.894;5.296;2022-12-07T16:11:21;27.65;;;25.70;;
22881;SDS011;11608;50.894;5.296;2022-12-07T16:13:47;28.00;;;26.10;;
22881;SDS011;11608;50.894;5.296;2022-12-07T16:16:14;30.50;;;28.50;;
22881;SDS011;11608;50.894;5.296;2022-12-07T16:18:42;28.75;;;26.83;;
22881;SDS011;11608;50.894;5.296;2022-12-07T16:21:08;30.83;;;28.73;;
22881;SDS011;11608;50.894;5.296;2022-12-07T16:23:34;31.25;;;29.23;;